sensor_id;sensor_type;location;lat;lon;timestamp;P1;durP1;ratioP1;P2;durP2;ratioP2
13102;SDS011;52970;46.752;17.108;2022-11-15T00:02:17;64.10;;;34.20;;
13102;SDS011;52970;46.752;17.108;2022-11-15T00:04:42;53.35;;;31.10;;
13102;SDS011;52970;46.752;17.108;2022-11-15T00:07:07;54.63;;;30.52;;
13102;SDS011;52970;46.752;17.108;2022-11-15T00:09:32;58.42;;;31.60;;
13102;SDS011;52970;46.752;17.108;2022-11-15T00:11:58;56.47;;;31.35;;
13102;SDS011;52970;46.752;17.108;2022-11-15T00:14:24;57.60;;;32.20;;
13102;SDS011;52970;46.752;17.108;2022-11-15T00:16:49;53.05;;;30.50;;
13102;SDS011;52970;46.752;17.108;2022-11-15T00:19:14;59.08;;;31.95;;
13102;SDS011;52970;46.752;17.108;2022-11-15T00:21:40;55.45;;;30.38;;
13102;SDS011;52970;46.752;17.108;2022-11-15T00:24:05;54.70;;;31.13;;
13102;SDS011;52970;46.752;17.108;2022-11-15T00:26:30;56.78;;;31.73;;
13102;SDS011;52970;46.752;17.108;2022-11-15T00:28:55;58.20;;;31.25;;
13102;SDS011;52970;46.752;17.108;2022-11-15T00:31:21;52.47;;;28.73;;
13102;SDS011;52970;46.752;17.108;2022-11-15T00:33:46;54.88;;;32.00;;
13102;SDS011;52970;46.752;17.108;2022-11-15T00:36:11;53.53;;;29.90;;
13102;SDS011;52970;46.752;17.108;2022-11-15T00:38:38;53.97;;;29.75;;
13102;SDS011;52970;46.752;17.108;2022-11-15T00:41:04;54.20;;;30.55;;
13102;SDS011;52970;46.752;17.108;2022-11-15T00:43:30;53.63;;;30.17;;
13102;SDS011;52970;46.752;17.108;2022-11-15T00:45:55;54.72;;;30.48;;
13102;SDS011;52970;46.752;17.108;2022-11-15T00:48:21;58.75;;;30.40;;
13102;SDS011;52970;46.752;17.108;2022-11-15T00:50:46;54.17;;;29.67;;
13102;SDS011;52970;46.752;17.108;2022-11-15T00:53:12;51.65;;;27.58;;
13102;SDS011;52970;46.752;17.108;2022-11-15T00:55:37;53.20;;;30.15;;
13102;SDS011;52970;46.752;17.108;2022-11-15T00:58:02;54.00;;;29.40;;
13102;SDS011;52970;46.752;17.108;2022-11-15T01:00:27;50.42;;;28.98;;
13102;SDS011;52970;46.752;17.108;2022-11-15T01:02:53;53.70;;;28.95;;
13102;SDS011;52970;46.752;17.108;2022-11-15T01:05:18;53.35;;;29.77;;
13102;SDS011;52970;46.752;17.108;2022-11-15T01:07:43;54.50;;;30.70;;
13102;SDS011;52970;46.752;17.108;2022-11-15T01:10:08;59.70;;;31.48;;
13102;SDS011;52970;46.752;17.108;2022-11-15T01:12:35;61.13;;;33.65;;
13102;SDS011;52970;46.752;17.108;2022-11-15T01:15:00;56.63;;;30.27;;
13102;SDS011;52970;46.752;17.108;2022-11-15T01:17:25;61.83;;;32.58;;
13102;SDS011;52970;46.752;17.108;2022-11-15T01:19:50;58.53;;;32.35;;
13102;SDS011;52970;46.752;17.108;2022-11-15T01:22:16;53.30;;;29.50;;
13102;SDS011;52970;46.752;17.108;2022-11-15T01:24:41;51.58;;;30.58;;
13102;SDS011;52970;46.752;17.108;2022-11-15T01:27:07;58.50;;;31.98;;
13102;SDS011;52970;46.752;17.108;2022-11-15T01:29:32;54.90;;;30.50;;
13102;SDS011;52970;46.752;17.108;2022-11-15T01:31:57;56.17;;;29.90;;
13102;SDS011;52970;46.752;17.108;2022-11-15T01:34:22;63.08;;;32.08;;
13102;SDS011;52970;46.752;17.108;2022-11-15T01:36:48;57.75;;;32.33;;
13102;SDS011;52970;46.752;17.108;2022-11-15T01:39:13;59.58;;;32.40;;
13102;SDS011;52970;46.752;17.108;2022-11-15T01:41:38;51.85;;;29.33;;
13102;SDS011;52970;46.752;17.108;2022-11-15T01:46:47;53.67;;;30.67;;
13102;SDS011;52970;46.752;17.108;2022-11-15T01:49:14;52.38;;;28.45;;
13102;SDS011;52970;46.752;17.108;2022-11-15T01:51:41;51.05;;;30.92;;
13102;SDS011;52970;46.752;17.108;2022-11-15T01:54:08;52.92;;;29.35;;
13102;SDS011;52970;46.752;17.108;2022-11-15T01:56:41;49.30;;;28.33;;
13102;SDS011;52970;46.752;17.108;2022-11-15T01:59:08;55.97;;;31.33;;
13102;SDS011;52970;46.752;17.108;2022-11-15T02:01:33;50.55;;;29.65;;
13102;SDS011;52970;46.752;17.108;2022-11-15T02:04:00;49.67;;;29.23;;
13102;SDS011;52970;46.752;17.108;2022-11-15T02:06:27;49.92;;;28.85;;
13102;SDS011;52970;46.752;17.108;2022-11-15T02:08:52;47.78;;;27.88;;
13102;SDS011;52970;46.752;17.108;2022-11-15T02:11:18;50.10;;;28.45;;
13102;SDS011;52970;46.752;17.108;2022-11-15T02:13:43;53.72;;;29.75;;
13102;SDS011;52970;46.752;17.108;2022-11-15T02:16:16;53.15;;;29.50;;
13102;SDS011;52970;46.752;17.108;2022-11-15T02:18:48;52.00;;;29.73;;
13102;SDS011;52970;46.752;17.108;2022-11-15T02:21:22;47.47;;;27.90;;
13102;SDS011;52970;46.752;17.108;2022-11-15T02:31:36;51.08;;;28.52;;
13102;SDS011;52970;46.752;17.108;2022-11-15T02:36:49;48.53;;;28.38;;
13102;SDS011;52970;46.752;17.108;2022-11-15T02:39:20;57.25;;;31.35;;
13102;SDS011;52970;46.752;17.108;2022-11-15T02:41:51;65.65;;;33.85;;
13102;SDS011;52970;46.752;17.108;2022-11-15T02:44:51;52.70;;;28.40;;
13102;SDS011;52970;46.752;17.108;2022-11-15T02:47:11;60.17;;;30.50;;
13102;SDS011;52970;46.752;17.108;2022-11-15T02:49:41;70.43;;;34.35;;
13102;SDS011;52970;46.752;17.108;2022-11-15T02:52:06;67.68;;;32.50;;
13102;SDS011;52970;46.752;17.108;2022-11-15T02:54:32;72.75;;;35.42;;
13102;SDS011;52970;46.752;17.108;2022-11-15T02:57:02;72.50;;;34.08;;
13102;SDS011;52970;46.752;17.108;2022-11-15T03:04:41;64.53;;;31.02;;
13102;SDS011;52970;46.752;17.108;2022-11-15T03:07:16;62.95;;;32.92;;
13102;SDS011;52970;46.752;17.108;2022-11-15T03:09:47;64.60;;;31.20;;
13102;SDS011;52970;46.752;17.108;2022-11-15T03:12:21;63.53;;;31.77;;
13102;SDS011;52970;46.752;17.108;2022-11-15T03:14:56;59.92;;;31.17;;
13102;SDS011;52970;46.752;17.108;2022-11-15T03:19:53;63.05;;;32.85;;
13102;SDS011;52970;46.752;17.108;2022-11-15T03:22:21;63.42;;;32.20;;
13102;SDS011;52970;46.752;17.108;2022-11-15T03:24:49;53.35;;;29.08;;
13102;SDS011;52970;46.752;17.108;2022-11-15T03:27:17;60.53;;;31.30;;
13102;SDS011;52970;46.752;17.108;2022-11-15T03:29:46;65.28;;;32.65;;
13102;SDS011;52970;46.752;17.108;2022-11-15T03:32:15;55.90;;;29.17;;
13102;SDS011;52970;46.752;17.108;2022-11-15T03:34:58;58.47;;;30.75;;
13102;SDS011;52970;46.752;17.108;2022-11-15T03:37:57;56.22;;;28.40;;
13102;SDS011;52970;46.752;17.108;2022-11-15T03:40:16;60.65;;;31.63;;
13102;SDS011;52970;46.752;17.108;2022-11-15T03:45:22;57.30;;;29.70;;
13102;SDS011;52970;46.752;17.108;2022-11-15T03:47:49;57.10;;;29.02;;
13102;SDS011;52970;46.752;17.108;2022-11-15T03:50:19;56.45;;;31.55;;
13102;SDS011;52970;46.752;17.108;2022-11-15T03:52:46;58.88;;;30.73;;
13102;SDS011;52970;46.752;17.108;2022-11-15T03:55:13;56.55;;;29.23;;
13102;SDS011;52970;46.752;17.108;2022-11-15T03:57:40;57.70;;;30.33;;
13102;SDS011;52970;46.752;17.108;2022-11-15T04:00:05;59.67;;;30.20;;
13102;SDS011;52970;46.752;17.108;2022-11-15T04:02:30;62.08;;;31.70;;
13102;SDS011;52970;46.752;17.108;2022-11-15T04:04:56;60.60;;;32.60;;
13102;SDS011;52970;46.752;17.108;2022-11-15T04:07:21;66.25;;;32.05;;
13102;SDS011;52970;46.752;17.108;2022-11-15T04:09:46;60.95;;;32.10;;
13102;SDS011;52970;46.752;17.108;2022-11-15T04:12:34;63.75;;;31.48;;
13102;SDS011;52970;46.752;17.108;2022-11-15T04:15:10;61.13;;;32.30;;
13102;SDS011;52970;46.752;17.108;2022-11-15T04:17:56;64.82;;;32.20;;
13102;SDS011;52970;46.752;17.108;2022-11-15T04:20:25;80.03;;;35.60;;
13102;SDS011;52970;46.752;17.108;2022-11-15T04:23:26;64.38;;;32.05;;
13102;SDS011;52970;46.752;17.108;2022-11-15T04:26:11;75.63;;;35.17;;
13102;SDS011;52970;46.752;17.108;2022-11-15T04:28:36;69.80;;;34.03;;
13102;SDS011;52970;46.752;17.108;2022-11-15T04:31:21;67.18;;;31.23;;
13102;SDS011;52970;46.752;17.108;2022-11-15T04:33:46;65.53;;;31.85;;
13102;SDS011;52970;46.752;17.108;2022-11-15T04:36:11;67.10;;;31.23;;
13102;SDS011;52970;46.752;17.108;2022-11-15T04:38:55;68.10;;;33.75;;
13102;SDS011;52970;46.752;17.108;2022-11-15T04:41:20;68.07;;;34.10;;
13102;SDS011;52970;46.752;17.108;2022-11-15T04:43:45;61.40;;;31.23;;
13102;SDS011;52970;46.752;17.108;2022-11-15T04:46:11;63.42;;;32.90;;
13102;SDS011;52970;46.752;17.108;2022-11-15T04:48:36;67.32;;;35.30;;
13102;SDS011;52970;46.752;17.108;2022-11-15T04:51:01;65.60;;;33.63;;
13102;SDS011;52970;46.752;17.108;2022-11-15T04:53:26;67.10;;;33.05;;
13102;SDS011;52970;46.752;17.108;2022-11-15T04:55:51;63.08;;;30.38;;
13102;SDS011;52970;46.752;17.108;2022-11-15T04:58:17;58.58;;;29.73;;
13102;SDS011;52970;46.752;17.108;2022-11-15T05:00:42;70.22;;;33.53;;
13102;SDS011;52970;46.752;17.108;2022-11-15T05:03:08;75.15;;;33.30;;
13102;SDS011;52970;46.752;17.108;2022-11-15T05:05:52;71.60;;;34.28;;
13102;SDS011;52970;46.752;17.108;2022-11-15T05:08:17;57.92;;;29.85;;
13102;SDS011;52970;46.752;17.108;2022-11-15T05:10:42;65.38;;;32.10;;
13102;SDS011;52970;46.752;17.108;2022-11-15T05:13:07;69.53;;;33.38;;
13102;SDS011;52970;46.752;17.108;2022-11-15T05:15:32;74.65;;;35.30;;
13102;SDS011;52970;46.752;17.108;2022-11-15T05:17:58;70.05;;;32.75;;
13102;SDS011;52970;46.752;17.108;2022-11-15T05:20:24;67.10;;;33.05;;
13102;SDS011;52970;46.752;17.108;2022-11-15T05:22:49;65.88;;;32.20;;
13102;SDS011;52970;46.752;17.108;2022-11-15T05:25:14;64.45;;;30.17;;
13102;SDS011;52970;46.752;17.108;2022-11-15T05:27:40;64.50;;;30.95;;
13102;SDS011;52970;46.752;17.108;2022-11-15T05:30:05;70.50;;;30.95;;
13102;SDS011;52970;46.752;17.108;2022-11-15T05:32:31;64.18;;;31.52;;
13102;SDS011;52970;46.752;17.108;2022-11-15T05:34:56;62.17;;;30.38;;
13102;SDS011;52970;46.752;17.108;2022-11-15T05:37:21;71.45;;;32.70;;
13102;SDS011;52970;46.752;17.108;2022-11-15T05:39:47;70.25;;;33.10;;
13102;SDS011;52970;46.752;17.108;2022-11-15T05:42:13;63.60;;;31.17;;
13102;SDS011;52970;46.752;17.108;2022-11-15T05:44:39;67.32;;;32.42;;
13102;SDS011;52970;46.752;17.108;2022-11-15T05:47:06;73.38;;;32.25;;
13102;SDS011;52970;46.752;17.108;2022-11-15T05:49:33;81.72;;;33.45;;
13102;SDS011;52970;46.752;17.108;2022-11-15T05:52:02;63.00;;;30.17;;
13102;SDS011;52970;46.752;17.108;2022-11-15T05:54:28;62.38;;;30.92;;
13102;SDS011;52970;46.752;17.108;2022-11-15T05:56:53;62.35;;;31.33;;
13102;SDS011;52970;46.752;17.108;2022-11-15T05:59:19;64.78;;;31.73;;
13102;SDS011;52970;46.752;17.108;2022-11-15T06:01:45;64.13;;;30.52;;
13102;SDS011;52970;46.752;17.108;2022-11-15T06:04:10;63.78;;;31.20;;
13102;SDS011;52970;46.752;17.108;2022-11-15T06:06:35;59.42;;;30.27;;
13102;SDS011;52970;46.752;17.108;2022-11-15T06:09:01;62.70;;;31.80;;
13102;SDS011;52970;46.752;17.108;2022-11-15T06:11:26;58.70;;;29.80;;
13102;SDS011;52970;46.752;17.108;2022-11-15T06:13:51;57.45;;;29.05;;
13102;SDS011;52970;46.752;17.108;2022-11-15T06:16:16;60.83;;;29.83;;
13102;SDS011;52970;46.752;17.108;2022-11-15T06:18:41;65.20;;;32.78;;
13102;SDS011;52970;46.752;17.108;2022-11-15T06:21:07;57.05;;;29.63;;
13102;SDS011;52970;46.752;17.108;2022-11-15T06:23:33;61.75;;;29.45;;
13102;SDS011;52970;46.752;17.108;2022-11-15T06:25:59;60.60;;;30.60;;
13102;SDS011;52970;46.752;17.108;2022-11-15T06:28:24;63.58;;;30.17;;
13102;SDS011;52970;46.752;17.108;2022-11-15T06:30:49;56.58;;;28.55;;
13102;SDS011;52970;46.752;17.108;2022-11-15T06:33:15;67.25;;;30.77;;
13102;SDS011;52970;46.752;17.108;2022-11-15T06:35:40;73.18;;;31.17;;
13102;SDS011;52970;46.752;17.108;2022-11-15T06:38:06;63.10;;;31.40;;
13102;SDS011;52970;46.752;17.108;2022-11-15T06:40:35;61.30;;;30.63;;
13102;SDS011;52970;46.752;17.108;2022-11-15T06:43:01;66.70;;;31.25;;
13102;SDS011;52970;46.752;17.108;2022-11-15T06:45:26;58.05;;;29.83;;
13102;SDS011;52970;46.752;17.108;2022-11-15T06:47:52;61.35;;;29.77;;
13102;SDS011;52970;46.752;17.108;2022-11-15T06:50:17;64.10;;;30.10;;
13102;SDS011;52970;46.752;17.108;2022-11-15T06:52:42;82.78;;;30.85;;
13102;SDS011;52970;46.752;17.108;2022-11-15T06:55:08;58.08;;;30.10;;
13102;SDS011;52970;46.752;17.108;2022-11-15T06:57:33;59.85;;;28.55;;
13102;SDS011;52970;46.752;17.108;2022-11-15T06:59:58;76.47;;;31.75;;
13102;SDS011;52970;46.752;17.108;2022-11-15T07:02:23;61.85;;;31.08;;
13102;SDS011;52970;46.752;17.108;2022-11-15T07:04:49;66.60;;;30.35;;
13102;SDS011;52970;46.752;17.108;2022-11-15T07:07:14;61.28;;;29.55;;
13102;SDS011;52970;46.752;17.108;2022-11-15T07:09:39;55.55;;;30.15;;
13102;SDS011;52970;46.752;17.108;2022-11-15T07:12:04;82.82;;;30.05;;
13102;SDS011;52970;46.752;17.108;2022-11-15T07:14:30;56.17;;;28.33;;
13102;SDS011;52970;46.752;17.108;2022-11-15T07:16:55;57.83;;;27.42;;
13102;SDS011;52970;46.752;17.108;2022-11-15T07:19:20;55.63;;;28.42;;
13102;SDS011;52970;46.752;17.108;2022-11-15T07:21:45;55.20;;;27.13;;
13102;SDS011;52970;46.752;17.108;2022-11-15T07:24:11;57.55;;;28.98;;
13102;SDS011;52970;46.752;17.108;2022-11-15T07:26:36;66.00;;;29.65;;
13102;SDS011;52970;46.752;17.108;2022-11-15T07:29:02;67.10;;;29.45;;
13102;SDS011;52970;46.752;17.108;2022-11-15T07:31:27;56.45;;;28.45;;
13102;SDS011;52970;46.752;17.108;2022-11-15T07:33:52;70.10;;;28.35;;
13102;SDS011;52970;46.752;17.108;2022-11-15T07:36:18;62.05;;;30.05;;
13102;SDS011;52970;46.752;17.108;2022-11-15T07:38:43;61.78;;;28.85;;
13102;SDS011;52970;46.752;17.108;2022-11-15T07:41:09;56.63;;;29.02;;
13102;SDS011;52970;46.752;17.108;2022-11-15T07:43:34;67.72;;;28.85;;
13102;SDS011;52970;46.752;17.108;2022-11-15T07:46:03;56.63;;;28.63;;
13102;SDS011;52970;46.752;17.108;2022-11-15T07:48:29;62.03;;;28.80;;
13102;SDS011;52970;46.752;17.108;2022-11-15T07:50:54;67.15;;;31.00;;
13102;SDS011;52970;46.752;17.108;2022-11-15T07:53:20;57.80;;;27.95;;
13102;SDS011;52970;46.752;17.108;2022-11-15T07:55:45;54.47;;;28.35;;
13102;SDS011;52970;46.752;17.108;2022-11-15T07:58:11;59.05;;;27.88;;
13102;SDS011;52970;46.752;17.108;2022-11-15T08:00:36;57.15;;;29.30;;
13102;SDS011;52970;46.752;17.108;2022-11-15T08:03:03;57.90;;;27.73;;
13102;SDS011;52970;46.752;17.108;2022-11-15T08:05:28;55.55;;;27.25;;
13102;SDS011;52970;46.752;17.108;2022-11-15T08:07:54;54.38;;;27.05;;
13102;SDS011;52970;46.752;17.108;2022-11-15T08:10:20;50.03;;;25.42;;
13102;SDS011;52970;46.752;17.108;2022-11-15T08:12:45;46.25;;;26.10;;
13102;SDS011;52970;46.752;17.108;2022-11-15T08:15:10;47.42;;;25.13;;
13102;SDS011;52970;46.752;17.108;2022-11-15T08:17:36;51.25;;;25.02;;
13102;SDS011;52970;46.752;17.108;2022-11-15T08:20:01;43.50;;;24.60;;
13102;SDS011;52970;46.752;17.108;2022-11-15T08:22:26;46.78;;;24.35;;
13102;SDS011;52970;46.752;17.108;2022-11-15T08:24:51;49.63;;;27.50;;
13102;SDS011;52970;46.752;17.108;2022-11-15T08:27:17;46.75;;;22.85;;
13102;SDS011;52970;46.752;17.108;2022-11-15T08:29:43;47.78;;;25.27;;
13102;SDS011;52970;46.752;17.108;2022-11-15T08:32:08;47.85;;;25.73;;
13102;SDS011;52970;46.752;17.108;2022-11-15T08:34:34;55.15;;;27.33;;
13102;SDS011;52970;46.752;17.108;2022-11-15T08:36:59;56.53;;;26.33;;
13102;SDS011;52970;46.752;17.108;2022-11-15T08:39:24;56.70;;;27.52;;
13102;SDS011;52970;46.752;17.108;2022-11-15T08:41:50;45.70;;;24.48;;
13102;SDS011;52970;46.752;17.108;2022-11-15T08:44:15;52.15;;;27.48;;
13102;SDS011;52970;46.752;17.108;2022-11-15T08:46:40;53.22;;;26.85;;
13102;SDS011;52970;46.752;17.108;2022-11-15T08:49:05;47.47;;;26.23;;
13102;SDS011;52970;46.752;17.108;2022-11-15T08:51:31;49.20;;;26.17;;
13102;SDS011;52970;46.752;17.108;2022-11-15T08:53:56;52.38;;;26.83;;
13102;SDS011;52970;46.752;17.108;2022-11-15T08:56:21;54.55;;;27.50;;
13102;SDS011;52970;46.752;17.108;2022-11-15T08:58:46;51.05;;;27.02;;
13102;SDS011;52970;46.752;17.108;2022-11-15T09:01:18;49.70;;;25.90;;
13102;SDS011;52970;46.752;17.108;2022-11-15T09:03:44;50.05;;;26.60;;
13102;SDS011;52970;46.752;17.108;2022-11-15T09:06:09;48.90;;;25.77;;
13102;SDS011;52970;46.752;17.108;2022-11-15T09:08:34;52.10;;;28.30;;
13102;SDS011;52970;46.752;17.108;2022-11-15T09:11:02;49.38;;;25.90;;
13102;SDS011;52970;46.752;17.108;2022-11-15T09:13:28;48.80;;;27.80;;
13102;SDS011;52970;46.752;17.108;2022-11-15T09:15:56;50.40;;;27.77;;
13102;SDS011;52970;46.752;17.108;2022-11-15T09:18:22;46.60;;;27.00;;
13102;SDS011;52970;46.752;17.108;2022-11-15T09:20:47;53.05;;;29.60;;
13102;SDS011;52970;46.752;17.108;2022-11-15T09:23:12;47.72;;;26.85;;
13102;SDS011;52970;46.752;17.108;2022-11-15T09:25:38;53.78;;;31.33;;
13102;SDS011;52970;46.752;17.108;2022-11-15T09:28:05;46.53;;;27.02;;
13102;SDS011;52970;46.752;17.108;2022-11-15T09:30:30;43.13;;;25.30;;
13102;SDS011;52970;46.752;17.108;2022-11-15T09:32:56;40.95;;;25.70;;
13102;SDS011;52970;46.752;17.108;2022-11-15T09:35:21;43.95;;;25.13;;
13102;SDS011;52970;46.752;17.108;2022-11-15T09:37:46;44.72;;;26.20;;
13102;SDS011;52970;46.752;17.108;2022-11-15T09:40:12;46.47;;;27.15;;
13102;SDS011;52970;46.752;17.108;2022-11-15T09:43:00;41.70;;;24.65;;
13102;SDS011;52970;46.752;17.108;2022-11-15T09:45:36;39.72;;;24.15;;
13102;SDS011;52970;46.752;17.108;2022-11-15T09:50:36;37.53;;;22.70;;
13102;SDS011;52970;46.752;17.108;2022-11-15T09:53:01;37.78;;;23.27;;
13102;SDS011;52970;46.752;17.108;2022-11-15T09:56:10;48.85;;;29.48;;
13102;SDS011;52970;46.752;17.108;2022-11-15T09:58:18;44.67;;;26.80;;
13102;SDS011;52970;46.752;17.108;2022-11-15T10:00:46;43.13;;;23.95;;
13102;SDS011;52970;46.752;17.108;2022-11-15T10:03:23;81.30;;;46.17;;
13102;SDS011;52970;46.752;17.108;2022-11-15T10:05:50;136.23;;;70.97;;
13102;SDS011;52970;46.752;17.108;2022-11-15T10:10:43;77.65;;;47.47;;
13102;SDS011;52970;46.752;17.108;2022-11-15T10:13:13;48.40;;;30.33;;
13102;SDS011;52970;46.752;17.108;2022-11-15T10:15:38;56.42;;;33.00;;
13102;SDS011;52970;46.752;17.108;2022-11-15T10:20:41;50.70;;;29.15;;
13102;SDS011;52970;46.752;17.108;2022-11-15T10:23:10;45.63;;;25.90;;
13102;SDS011;52970;46.752;17.108;2022-11-15T10:25:36;48.95;;;28.63;;
13102;SDS011;52970;46.752;17.108;2022-11-15T10:30:47;45.30;;;25.63;;
13102;SDS011;52970;46.752;17.108;2022-11-15T10:36:14;44.38;;;26.10;;
13102;SDS011;52970;46.752;17.108;2022-11-15T10:41:16;40.13;;;24.17;;
13102;SDS011;52970;46.752;17.108;2022-11-15T10:43:42;39.45;;;24.20;;
13102;SDS011;52970;46.752;17.108;2022-11-15T10:46:19;40.58;;;24.50;;
13102;SDS011;52970;46.752;17.108;2022-11-15T10:48:45;39.58;;;24.33;;
13102;SDS011;52970;46.752;17.108;2022-11-15T10:51:19;39.33;;;23.63;;
13102;SDS011;52970;46.752;17.108;2022-11-15T10:53:45;40.65;;;24.52;;
13102;SDS011;52970;46.752;17.108;2022-11-15T10:56:12;41.30;;;24.05;;
13102;SDS011;52970;46.752;17.108;2022-11-15T10:58:41;37.25;;;23.35;;
13102;SDS011;52970;46.752;17.108;2022-11-15T11:03:42;37.05;;;22.67;;
13102;SDS011;52970;46.752;17.108;2022-11-15T11:06:12;38.35;;;23.35;;
13102;SDS011;52970;46.752;17.108;2022-11-15T11:08:38;37.05;;;22.65;;
13102;SDS011;52970;46.752;17.108;2022-11-15T11:11:04;38.08;;;22.42;;
13102;SDS011;52970;46.752;17.108;2022-11-15T11:13:31;34.13;;;21.55;;
13102;SDS011;52970;46.752;17.108;2022-11-15T11:16:14;34.67;;;21.42;;
13102;SDS011;52970;46.752;17.108;2022-11-15T11:21:10;36.08;;;23.92;;
13102;SDS011;52970;46.752;17.108;2022-11-15T11:28:54;40.42;;;27.13;;
13102;SDS011;52970;46.752;17.108;2022-11-15T11:39:00;34.17;;;21.88;;
13102;SDS011;52970;46.752;17.108;2022-11-15T11:49:16;34.40;;;22.75;;
13102;SDS011;52970;46.752;17.108;2022-11-15T11:51:47;33.03;;;21.85;;
13102;SDS011;52970;46.752;17.108;2022-11-15T11:54:17;37.35;;;22.83;;
13102;SDS011;52970;46.752;17.108;2022-11-15T11:56:44;35.05;;;23.13;;
13102;SDS011;52970;46.752;17.108;2022-11-15T11:59:23;39.05;;;24.40;;
13102;SDS011;52970;46.752;17.108;2022-11-15T12:01:50;33.42;;;20.85;;
13102;SDS011;52970;46.752;17.108;2022-11-15T12:04:18;36.30;;;22.75;;
13102;SDS011;52970;46.752;17.108;2022-11-15T12:09:21;37.45;;;22.35;;
13102;SDS011;52970;46.752;17.108;2022-11-15T12:16:52;82.00;;;44.65;;
13102;SDS011;52970;46.752;17.108;2022-11-15T12:19:17;66.57;;;41.00;;
13102;SDS011;52970;46.752;17.108;2022-11-15T12:21:45;72.50;;;39.78;;
13102;SDS011;52970;46.752;17.108;2022-11-15T12:24:26;37.53;;;23.23;;
13102;SDS011;52970;46.752;17.108;2022-11-15T12:26:54;35.38;;;23.15;;
13102;SDS011;52970;46.752;17.108;2022-11-15T12:29:24;38.63;;;23.42;;
13102;SDS011;52970;46.752;17.108;2022-11-15T12:31:51;36.92;;;22.77;;
13102;SDS011;52970;46.752;17.108;2022-11-15T12:36:46;32.28;;;21.83;;
13102;SDS011;52970;46.752;17.108;2022-11-15T12:39:12;34.00;;;21.88;;
13102;SDS011;52970;46.752;17.108;2022-11-15T12:41:41;33.05;;;22.55;;
13102;SDS011;52970;46.752;17.108;2022-11-15T12:44:55;33.33;;;21.27;;
13102;SDS011;52970;46.752;17.108;2022-11-15T13:02:19;35.05;;;23.27;;
13102;SDS011;52970;46.752;17.108;2022-11-15T13:04:46;36.92;;;23.88;;
13102;SDS011;52970;46.752;17.108;2022-11-15T13:07:54;34.03;;;23.65;;
13102;SDS011;52970;46.752;17.108;2022-11-15T13:09:56;32.58;;;22.60;;
13102;SDS011;52970;46.752;17.108;2022-11-15T13:14:54;28.52;;;20.45;;
13102;SDS011;52970;46.752;17.108;2022-11-15T13:20:27;29.48;;;21.40;;
13102;SDS011;52970;46.752;17.108;2022-11-15T13:22:59;32.55;;;21.85;;
13102;SDS011;52970;46.752;17.108;2022-11-15T13:30:38;32.00;;;21.27;;
13102;SDS011;52970;46.752;17.108;2022-11-15T13:33:08;28.27;;;21.00;;
13102;SDS011;52970;46.752;17.108;2022-11-15T13:35:36;29.92;;;20.90;;
13102;SDS011;52970;46.752;17.108;2022-11-15T13:38:03;27.27;;;18.95;;
13102;SDS011;52970;46.752;17.108;2022-11-15T13:40:29;29.92;;;19.17;;
13102;SDS011;52970;46.752;17.108;2022-11-15T13:42:58;27.17;;;19.73;;
13102;SDS011;52970;46.752;17.108;2022-11-15T13:45:24;30.15;;;20.63;;
13102;SDS011;52970;46.752;17.108;2022-11-15T13:47:56;27.67;;;19.75;;
13102;SDS011;52970;46.752;17.108;2022-11-15T13:50:24;26.10;;;19.02;;
13102;SDS011;52970;46.752;17.108;2022-11-15T13:52:51;30.77;;;22.27;;
13102;SDS011;52970;46.752;17.108;2022-11-15T13:55:21;31.77;;;21.42;;
13102;SDS011;52970;46.752;17.108;2022-11-15T14:00:45;30.02;;;21.25;;
13102;SDS011;52970;46.752;17.108;2022-11-15T14:03:19;42.65;;;27.58;;
13102;SDS011;52970;46.752;17.108;2022-11-15T14:06:08;38.45;;;25.65;;
13102;SDS011;52970;46.752;17.108;2022-11-15T14:08:32;38.95;;;25.45;;
13102;SDS011;52970;46.752;17.108;2022-11-15T14:11:12;31.20;;;22.55;;
13102;SDS011;52970;46.752;17.108;2022-11-15T14:13:39;31.67;;;21.67;;
13102;SDS011;52970;46.752;17.108;2022-11-15T14:16:14;34.92;;;23.70;;
13102;SDS011;52970;46.752;17.108;2022-11-15T14:18:57;31.48;;;21.95;;
13102;SDS011;52970;46.752;17.108;2022-11-15T14:21:22;31.77;;;21.42;;
13102;SDS011;52970;46.752;17.108;2022-11-15T14:23:47;32.78;;;22.33;;
13102;SDS011;52970;46.752;17.108;2022-11-15T14:28:54;31.83;;;21.73;;
13102;SDS011;52970;46.752;17.108;2022-11-15T14:31:19;33.22;;;22.92;;
13102;SDS011;52970;46.752;17.108;2022-11-15T14:33:45;28.67;;;20.92;;
13102;SDS011;52970;46.752;17.108;2022-11-15T14:36:11;29.63;;;21.35;;
13102;SDS011;52970;46.752;17.108;2022-11-15T14:38:37;31.17;;;22.13;;
13102;SDS011;52970;46.752;17.108;2022-11-15T14:41:02;31.55;;;21.95;;
13102;SDS011;52970;46.752;17.108;2022-11-15T14:43:27;29.92;;;21.63;;
13102;SDS011;52970;46.752;17.108;2022-11-15T14:45:53;25.92;;;20.48;;
13102;SDS011;52970;46.752;17.108;2022-11-15T14:48:18;28.83;;;20.48;;
13102;SDS011;52970;46.752;17.108;2022-11-15T14:50:43;30.13;;;20.67;;
13102;SDS011;52970;46.752;17.108;2022-11-15T14:53:13;30.33;;;21.08;;
13102;SDS011;52970;46.752;17.108;2022-11-15T14:55:38;27.17;;;20.65;;
13102;SDS011;52970;46.752;17.108;2022-11-15T14:58:04;28.85;;;20.33;;
13102;SDS011;52970;46.752;17.108;2022-11-15T15:00:32;26.38;;;19.73;;
13102;SDS011;52970;46.752;17.108;2022-11-15T15:02:58;27.50;;;20.17;;
13102;SDS011;52970;46.752;17.108;2022-11-15T15:05:34;29.35;;;20.38;;
13102;SDS011;52970;46.752;17.108;2022-11-15T15:07:59;28.65;;;20.85;;
13102;SDS011;52970;46.752;17.108;2022-11-15T15:10:25;28.52;;;20.25;;
13102;SDS011;52970;46.752;17.108;2022-11-15T15:12:52;27.38;;;19.90;;
13102;SDS011;52970;46.752;17.108;2022-11-15T15:15:22;28.65;;;21.20;;
13102;SDS011;52970;46.752;17.108;2022-11-15T15:17:48;27.95;;;20.13;;
13102;SDS011;52970;46.752;17.108;2022-11-15T15:20:14;29.73;;;21.05;;
13102;SDS011;52970;46.752;17.108;2022-11-15T15:22:39;29.05;;;20.35;;
13102;SDS011;52970;46.752;17.108;2022-11-15T15:27:49;30.17;;;20.50;;
13102;SDS011;52970;46.752;17.108;2022-11-15T15:30:14;31.30;;;21.45;;
13102;SDS011;52970;46.752;17.108;2022-11-15T15:32:39;28.85;;;21.40;;
13102;SDS011;52970;46.752;17.108;2022-11-15T15:35:05;26.25;;;19.55;;
13102;SDS011;52970;46.752;17.108;2022-11-15T15:37:30;28.42;;;20.42;;
13102;SDS011;52970;46.752;17.108;2022-11-15T15:39:58;27.98;;;20.42;;
13102;SDS011;52970;46.752;17.108;2022-11-15T15:42:23;30.80;;;21.38;;
13102;SDS011;52970;46.752;17.108;2022-11-15T15:44:49;28.77;;;21.58;;
13102;SDS011;52970;46.752;17.108;2022-11-15T15:47:21;27.67;;;19.60;;
13102;SDS011;52970;46.752;17.108;2022-11-15T15:49:47;26.17;;;19.65;;
13102;SDS011;52970;46.752;17.108;2022-11-15T15:52:12;28.88;;;20.52;;
13102;SDS011;52970;46.752;17.108;2022-11-15T15:54:38;28.00;;;19.92;;
13102;SDS011;52970;46.752;17.108;2022-11-15T15:57:04;27.83;;;20.27;;
13102;SDS011;52970;46.752;17.108;2022-11-15T15:59:30;29.27;;;20.27;;
13102;SDS011;52970;46.752;17.108;2022-11-15T16:01:55;28.55;;;20.23;;